createdAt,value
2019-03-22T00:02:21.300Z,7.30
2019-03-22T00:05:25.179Z,7.30
2019-03-22T00:08:29.040Z,7.30
2019-03-22T00:11:32.956Z,7.30
2019-03-22T00:14:37.204Z,7.30
2019-03-22T00:17:41.084Z,7.30
2019-03-22T00:20:44.863Z,7.30
2019-03-22T00:23:48.699Z,7.30
2019-03-22T00:26:52.412Z,7.30
2019-03-22T00:29:56.256Z,7.20
2019-03-22T00:33:00.033Z,7.20
2019-03-22T00:36:03.738Z,7.20
2019-03-22T00:39:07.445Z,7.20
2019-03-22T00:42:11.153Z,7.20
2019-03-22T00:45:14.955Z,7.10
2019-03-22T00:48:18.815Z,7.10
2019-03-22T00:51:22.509Z,7.10
2019-03-22T00:54:26.204Z,7.20
2019-03-22T00:57:29.992Z,7.20
2019-03-22T01:00:33.855Z,7.10
2019-03-22T01:03:37.611Z,7.10
2019-03-22T01:06:41.472Z,7.00
2019-03-22T01:09:45.128Z,7.00
2019-03-22T01:12:48.842Z,7.00
2019-03-22T01:15:52.647Z,7.10
2019-03-22T01:18:56.456Z,7.10
2019-03-22T01:22:00.195Z,7.10
2019-03-22T01:25:04.636Z,7.10
2019-03-22T01:28:08.284Z,7.10
2019-03-22T01:31:12.143Z,7.30
2019-03-22T01:34:15.807Z,7.30
2019-03-22T01:37:19.656Z,7.30
2019-03-22T01:40:23.571Z,7.40
2019-03-22T01:43:27.240Z,7.30
2019-03-22T01:46:30.959Z,7.30
2019-03-22T01:49:34.654Z,7.40
2019-03-22T01:52:39.116Z,7.40
2019-03-22T01:55:42.820Z,7.50
2019-03-22T01:58:46.498Z,7.60
2019-03-22T02:01:50.245Z,7.60
2019-03-22T02:04:54.036Z,7.60
2019-03-22T02:07:57.766Z,7.70
2019-03-22T02:11:01.356Z,7.70
2019-03-22T02:14:05.016Z,7.80
2019-03-22T02:17:08.743Z,7.80
2019-03-22T02:20:13.472Z,7.80
2019-03-22T02:23:17.377Z,7.80
2019-03-22T02:26:21.132Z,7.90
2019-03-22T02:29:24.892Z,7.90
2019-03-22T02:32:28.715Z,8.00
2019-03-22T02:35:32.444Z,8.00
2019-03-22T02:38:36.221Z,8.00
2019-03-22T02:41:40.065Z,8.10
2019-03-22T02:44:43.830Z,8.10
2019-03-22T02:47:47.555Z,8.10
2019-03-22T02:50:51.277Z,8.10
2019-03-22T02:53:55.187Z,8.10
2019-03-22T02:56:58.976Z,8.10
2019-03-22T03:00:03.015Z,8.10
2019-03-22T03:03:06.901Z,8.20
2019-03-22T03:06:10.647Z,8.30
2019-03-22T03:09:56.665Z,8.40
2019-03-22T03:13:00.405Z,8.50
2019-03-22T03:16:04.344Z,8.70
2019-03-22T03:19:08.145Z,8.70
2019-03-22T03:22:11.853Z,8.70
2019-03-22T03:25:15.864Z,8.90
2019-03-22T03:28:19.567Z,9.00
2019-03-22T03:31:23.518Z,9.00
2019-03-22T03:34:27.200Z,9.00
2019-03-22T03:37:30.896Z,9.00
2019-03-22T03:40:34.637Z,9.00
2019-03-22T03:43:38.313Z,9.00
2019-03-22T03:46:42.018Z,9.10
2019-03-22T03:49:45.724Z,9.20
2019-03-22T03:52:49.433Z,9.10
2019-03-22T03:55:53.211Z,9.10
2019-03-22T03:58:56.880Z,9.10
2019-03-22T04:02:00.696Z,9.10
2019-03-22T04:05:04.495Z,9.20
2019-03-22T04:08:08.204Z,9.20
2019-03-22T04:11:12.057Z,9.10
2019-03-22T04:14:15.828Z,9.10
2019-03-22T04:17:30.684Z,9.00
2019-03-22T04:20:34.304Z,9.00
2019-03-22T04:23:37.993Z,9.10
2019-03-22T04:26:41.818Z,9.00
2019-03-22T04:29:45.516Z,9.00
2019-03-22T04:32:49.333Z,9.00
2019-03-22T04:35:53.141Z,9.00
2019-03-22T04:38:56.936Z,9.00
2019-03-22T04:42:00.764Z,9.00
2019-03-22T04:45:05.093Z,9.10
2019-03-22T04:48:17.703Z,9.10
2019-03-22T04:51:22.360Z,9.10
2019-03-22T04:54:27.532Z,9.00
2019-03-22T04:57:32.468Z,9.00
2019-03-22T05:00:36.829Z,9.00
2019-03-22T05:03:41.827Z,9.00
2019-03-22T05:06:46.768Z,9.10
2019-03-22T05:09:51.020Z,9.10
2019-03-22T05:12:57.832Z,9.20
2019-03-22T05:16:02.018Z,9.20
2019-03-22T05:19:08.208Z,9.30
2019-03-22T05:22:14.386Z,9.20
2019-03-22T05:25:19.956Z,9.20
2019-03-22T05:28:27.231Z,9.20
2019-03-22T05:32:09.911Z,9.20
2019-03-22T05:35:13.619Z,9.30
2019-03-22T05:38:17.310Z,9.30
2019-03-22T05:41:21.032Z,9.30
2019-03-22T05:44:24.777Z,9.30
2019-03-22T05:47:28.485Z,9.30
2019-03-22T05:50:32.251Z,9.30
2019-03-22T05:53:36.101Z,9.30
2019-03-22T05:56:39.777Z,9.40
2019-03-22T05:59:43.512Z,9.40
2019-03-22T06:02:47.328Z,9.50
2019-03-22T06:05:51.012Z,9.40
2019-03-22T06:08:54.746Z,9.40
2019-03-22T06:11:58.819Z,9.50
2019-03-22T06:15:02.526Z,9.50
2019-03-22T06:18:07.192Z,9.50
2019-03-22T06:21:10.963Z,9.40
2019-03-22T06:24:14.703Z,9.40
2019-03-22T06:27:18.503Z,9.50
2019-03-22T06:30:22.347Z,9.50
2019-03-22T06:33:26.099Z,9.50
2019-03-22T06:36:29.824Z,9.50
2019-03-22T06:39:34.685Z,9.60
2019-03-22T06:42:38.613Z,9.70
2019-03-22T06:45:42.259Z,9.70
2019-03-22T06:48:46.113Z,9.70
2019-03-22T06:51:49.780Z,9.80
2019-03-22T06:54:53.492Z,9.80
2019-03-22T06:57:57.127Z,9.80
2019-03-22T07:01:01.200Z,9.90
2019-03-22T07:04:04.927Z,10.00
2019-03-22T07:07:09.128Z,10.00
2019-03-22T07:10:12.944Z,10.00
2019-03-22T07:13:16.783Z,10.10
2019-03-22T07:16:20.560Z,10.10
2019-03-22T07:19:24.305Z,10.10
2019-03-22T07:22:27.964Z,10.30
2019-03-22T07:25:31.692Z,10.30
2019-03-22T07:28:35.734Z,10.50
2019-03-22T07:31:39.421Z,10.50
2019-03-22T07:34:43.156Z,10.50
2019-03-22T07:37:47.945Z,10.50
2019-03-22T07:40:54.975Z,10.50
2019-03-22T07:44:02.413Z,10.50
2019-03-22T07:47:12.353Z,10.50
2019-03-22T07:51:07.430Z,10.40
2019-03-22T07:54:19.076Z,10.50
2019-03-22T07:57:30.463Z,10.50
2019-03-22T08:00:34.968Z,10.50
2019-03-22T08:03:39.820Z,10.60
2019-03-22T08:06:44.382Z,10.60
2019-03-22T08:09:51.269Z,10.70
2019-03-22T08:12:56.316Z,10.70
2019-03-22T08:16:00.188Z,10.70
2019-03-22T08:19:04.004Z,10.70
2019-03-22T08:22:07.800Z,10.70
2019-03-22T08:25:12.523Z,10.80
2019-03-22T08:28:16.346Z,10.80
2019-03-22T08:31:20.504Z,10.80
2019-03-22T08:34:24.308Z,10.80
2019-03-22T08:37:28.107Z,10.80
2019-03-22T08:40:31.899Z,10.90
2019-03-22T08:43:35.693Z,11.10
2019-03-22T08:46:39.632Z,11.10
2019-03-22T08:49:43.748Z,11.10
2019-03-22T08:52:47.651Z,11.10
2019-03-22T08:55:52.531Z,11.20
2019-03-22T08:58:56.394Z,11.20
2019-03-22T09:02:00.311Z,11.20
2019-03-22T09:05:04.804Z,11.10
2019-03-22T09:08:08.640Z,11.10
2019-03-22T09:11:12.588Z,11.30
2019-03-22T09:14:16.391Z,11.10
2019-03-22T09:17:20.279Z,10.90
2019-03-22T09:20:24.322Z,10.80
2019-03-22T09:23:29.045Z,10.70
2019-03-22T09:26:32.768Z,10.80
2019-03-22T09:29:36.536Z,11.00
2019-03-22T09:32:40.259Z,11.10
2019-03-22T09:35:47.680Z,11.40
2019-03-22T09:38:51.452Z,11.60
2019-03-22T09:41:55.195Z,11.40
2019-03-22T09:44:58.922Z,11.60
2019-03-22T09:48:02.767Z,11.70
2019-03-22T09:51:08.433Z,11.60
2019-03-22T09:54:12.164Z,11.50
2019-03-22T09:57:16.073Z,11.40
2019-03-22T10:00:30.473Z,11.40
2019-03-22T10:03:34.113Z,11.30
2019-03-22T10:06:37.861Z,11.70
2019-03-22T10:09:41.645Z,12.00
2019-03-22T10:12:45.421Z,12.00
2019-03-22T10:15:49.145Z,11.70
2019-03-22T10:18:52.959Z,11.80
2019-03-22T10:21:56.737Z,11.70
2019-03-22T10:25:00.478Z,11.60
2019-03-22T10:28:04.380Z,11.60
2019-03-22T10:31:08.643Z,11.30
2019-03-22T10:34:12.382Z,11.10
2019-03-22T10:37:16.207Z,11.20
2019-03-22T10:40:19.827Z,11.40
2019-03-22T10:43:23.618Z,11.60
2019-03-22T10:46:27.324Z,11.70
2019-03-22T10:49:32.105Z,11.80
2019-03-22T10:52:35.874Z,11.90
2019-03-22T10:55:39.569Z,11.70
2019-03-22T10:58:43.428Z,11.50
2019-03-22T11:02:02.237Z,11.40
2019-03-22T11:04:52.864Z,11.60
2019-03-22T11:07:56.788Z,11.80
2019-03-22T11:11:01.069Z,11.90
2019-03-22T11:14:05.108Z,12.00
2019-03-22T11:17:09.924Z,12.30
2019-03-22T11:20:14.488Z,12.30
2019-03-22T11:23:18.191Z,12.40
2019-03-22T11:26:21.970Z,12.60
2019-03-22T11:29:25.716Z,12.00
2019-03-22T11:32:29.484Z,11.60
2019-03-22T11:35:33.232Z,11.50
2019-03-22T11:38:37.037Z,11.50
2019-03-22T11:41:40.854Z,11.80
2019-03-22T11:44:44.555Z,11.80
2019-03-22T11:47:48.323Z,11.70
2019-03-22T11:50:52.956Z,11.40
2019-03-22T11:53:56.802Z,11.40
2019-03-22T11:57:01.077Z,11.30
2019-03-22T12:00:08.929Z,11.30
2019-03-22T12:03:12.676Z,11.50
2019-03-22T12:06:16.309Z,11.90
2019-03-22T12:09:20.053Z,12.00
2019-03-22T12:12:23.820Z,11.90
2019-03-22T12:15:27.569Z,12.00
2019-03-22T12:18:31.267Z,12.00
2019-03-22T12:21:34.950Z,11.80
2019-03-22T12:24:38.789Z,11.90
2019-03-22T12:27:42.769Z,11.90
2019-03-22T12:30:46.612Z,11.70
2019-03-22T12:33:50.289Z,11.80
2019-03-22T12:36:53.999Z,11.50
2019-03-22T12:39:57.837Z,11.50
2019-03-22T12:43:01.921Z,11.70
2019-03-22T12:46:05.761Z,11.70
2019-03-22T12:49:09.431Z,12.00
2019-03-22T12:52:13.249Z,11.80
2019-03-22T12:55:18.224Z,11.70
2019-03-22T12:58:23.016Z,11.70
2019-03-22T13:01:27.948Z,11.70
2019-03-22T13:04:32.427Z,11.80
2019-03-22T13:07:36.231Z,11.70
2019-03-22T13:10:40.112Z,11.70
2019-03-22T13:13:43.907Z,11.90
2019-03-22T13:16:47.620Z,11.90
2019-03-22T13:19:52.340Z,11.70
2019-03-22T13:22:57.176Z,11.80
2019-03-22T13:26:00.910Z,11.70
2019-03-22T13:29:04.696Z,11.90
2019-03-22T13:32:08.970Z,12.10
2019-03-22T13:35:12.760Z,12.20
2019-03-22T13:38:16.436Z,12.20
2019-03-22T13:41:20.223Z,12.00
2019-03-22T13:44:23.944Z,12.00
2019-03-22T13:47:27.653Z,11.80
2019-03-22T13:50:31.397Z,11.70
2019-03-22T13:53:35.295Z,11.60
2019-03-22T13:56:38.981Z,11.50
2019-03-22T13:59:42.789Z,11.60
2019-03-22T14:02:46.499Z,11.90
2019-03-22T14:05:50.340Z,12.00
2019-03-22T14:08:54.011Z,12.00
2019-03-22T14:11:57.825Z,12.20
2019-03-22T14:15:01.731Z,11.90
2019-03-22T14:18:05.677Z,11.80
2019-03-22T14:21:09.385Z,11.90
2019-03-22T14:24:13.061Z,12.00
2019-03-22T14:27:16.801Z,12.00
2019-03-22T14:30:21.599Z,11.90
2019-03-22T14:33:25.312Z,11.80
2019-03-22T14:36:29.049Z,11.60
2019-03-22T14:39:32.823Z,11.60
2019-03-22T14:42:36.672Z,11.50
2019-03-22T14:45:40.404Z,11.50
2019-03-22T14:48:44.049Z,11.50
2019-03-22T14:51:47.788Z,11.50
2019-03-22T14:54:51.568Z,11.60
2019-03-22T14:57:55.278Z,11.90
2019-03-22T15:00:59.116Z,11.90
2019-03-22T15:04:02.924Z,11.90
2019-03-22T15:07:06.818Z,11.80
2019-03-22T15:10:11.016Z,11.70
2019-03-22T15:13:15.085Z,11.80
2019-03-22T15:16:38.002Z,11.70
2019-03-22T15:19:59.976Z,11.90
2019-03-22T15:23:21.541Z,11.80
2019-03-22T15:26:49.155Z,11.70
2019-03-22T15:30:16.968Z,11.70
2019-03-22T15:33:40.152Z,11.60
2019-03-22T15:37:12.586Z,11.60
2019-03-22T15:40:17.791Z,11.80
2019-03-22T15:43:21.492Z,11.80
2019-03-22T15:46:25.284Z,11.90
2019-03-22T15:49:29.009Z,11.80
2019-03-22T15:52:32.728Z,11.80
2019-03-22T15:55:36.625Z,11.80
2019-03-22T15:58:40.312Z,11.80
2019-03-22T16:01:44.126Z,11.60
2019-03-22T16:04:47.829Z,11.50
2019-03-22T16:07:51.589Z,11.40
2019-03-22T16:10:55.245Z,11.10
2019-03-22T16:13:59.172Z,11.00
2019-03-22T16:17:02.956Z,11.00
2019-03-22T16:20:08.095Z,11.00
2019-03-22T16:23:11.912Z,10.90
2019-03-22T16:26:15.616Z,10.90
2019-03-22T16:29:19.329Z,10.90
2019-03-22T16:32:23.010Z,11.00
2019-03-22T16:35:26.632Z,10.90
2019-03-22T16:38:30.447Z,10.90
2019-03-22T16:41:34.132Z,11.00
2019-03-22T16:44:37.860Z,10.90
2019-03-22T16:47:41.543Z,10.80
2019-03-22T16:50:45.280Z,10.80
2019-03-22T16:53:48.981Z,10.80
2019-03-22T16:56:52.789Z,10.70
2019-03-22T16:59:56.533Z,10.70
2019-03-22T17:03:00.408Z,10.50
2019-03-22T17:06:04.156Z,10.50
2019-03-22T17:09:07.961Z,10.60
2019-03-22T17:12:11.633Z,10.50
2019-03-22T17:15:15.376Z,10.40
2019-03-22T17:18:19.144Z,10.30
2019-03-22T17:21:22.996Z,10.30
2019-03-22T17:24:26.680Z,10.20
2019-03-22T17:27:30.480Z,10.10
2019-03-22T17:30:34.328Z,10.10
2019-03-22T17:33:38.095Z,10.10
2019-03-22T17:36:41.800Z,10.10
2019-03-22T17:39:45.524Z,10.10
2019-03-22T17:42:49.211Z,10.10
2019-03-22T17:45:52.957Z,10.20
2019-03-22T17:48:56.828Z,10.20
2019-03-22T17:52:00.544Z,10.20
2019-03-22T17:55:04.552Z,10.20
2019-03-22T17:58:08.270Z,10.20
2019-03-22T18:01:12.215Z,10.20
2019-03-22T18:04:23.899Z,10.20
2019-03-22T18:07:21.335Z,10.00
2019-03-22T18:10:25.073Z,10.10
2019-03-22T18:13:28.827Z,10.10
2019-03-22T18:16:32.691Z,10.10
2019-03-22T18:19:36.467Z,10.10
2019-03-22T18:22:40.273Z,10.10
2019-03-22T18:25:44.137Z,10.10
2019-03-22T18:28:47.824Z,10.20
2019-03-22T18:31:52.624Z,10.10
2019-03-22T18:34:56.169Z,10.10
2019-03-22T18:37:59.944Z,10.10
2019-03-22T18:41:03.785Z,10.10
2019-03-22T18:44:07.356Z,10.10
2019-03-22T18:47:11.205Z,10.00
2019-03-22T18:50:14.988Z,10.00
2019-03-22T18:53:18.888Z,9.80
2019-03-22T18:56:22.675Z,9.80
2019-03-22T18:59:26.401Z,9.80
2019-03-22T19:02:30.040Z,9.80
2019-03-22T19:05:33.800Z,9.90
2019-03-22T19:08:37.535Z,9.60
2019-03-22T19:11:41.472Z,9.40
2019-03-22T19:14:45.116Z,9.20
2019-03-22T19:17:48.847Z,9.00
2019-03-22T19:20:52.562Z,8.90
2019-03-22T19:23:56.414Z,8.70
2019-03-22T19:27:00.104Z,8.70
2019-03-22T19:30:04.740Z,8.60
2019-03-22T19:33:08.512Z,8.40
2019-03-22T19:36:12.218Z,8.30
2019-03-22T19:39:16.023Z,8.20
2019-03-22T19:42:19.724Z,8.00
2019-03-22T19:45:23.552Z,7.80
2019-03-22T19:48:27.250Z,7.70
2019-03-22T19:51:31.060Z,7.60
2019-03-22T19:54:34.756Z,7.50
2019-03-22T19:57:38.662Z,7.40
2019-03-22T20:00:42.384Z,7.30
2019-03-22T20:03:46.200Z,7.20
2019-03-22T20:06:49.909Z,7.10
2019-03-22T20:09:53.616Z,7.00
2019-03-22T20:12:57.345Z,6.90
2019-03-22T20:16:01.125Z,6.80
2019-03-22T20:19:04.936Z,6.70
2019-03-22T20:22:08.844Z,6.60
2019-03-22T20:25:12.709Z,6.50
2019-03-22T20:28:16.347Z,6.50
2019-03-22T20:31:20.072Z,6.40
2019-03-22T20:34:23.990Z,6.30
2019-03-22T20:37:27.795Z,6.20
2019-03-22T20:40:31.741Z,6.20
2019-03-22T20:43:35.552Z,6.10
2019-03-22T20:46:39.320Z,6.00
2019-03-22T20:49:43.068Z,5.90
2019-03-22T20:52:46.888Z,5.80
2019-03-22T20:55:50.679Z,5.80
2019-03-22T20:58:54.400Z,5.70
2019-03-22T21:01:58.046Z,5.60
2019-03-22T21:05:02.022Z,5.60
2019-03-22T21:08:05.893Z,5.50
2019-03-22T21:11:09.631Z,5.40
2019-03-22T21:14:13.443Z,5.30
2019-03-22T21:17:17.223Z,5.30
2019-03-22T21:20:20.956Z,5.20
2019-03-22T21:23:24.733Z,5.20
2019-03-22T21:26:28.580Z,5.20
2019-03-22T21:29:32.284Z,5.10
2019-03-22T21:32:44.733Z,5.00
2019-03-22T21:35:41.644Z,4.90
2019-03-22T21:38:45.313Z,4.80
2019-03-22T21:41:49.156Z,4.80
2019-03-22T21:44:52.870Z,4.70
2019-03-22T21:47:56.541Z,4.70
2019-03-22T21:51:00.296Z,4.70
2019-03-22T21:54:03.999Z,4.60
2019-03-22T21:57:07.644Z,4.60
2019-03-22T22:00:11.508Z,4.50
2019-03-22T22:03:15.276Z,4.50
2019-03-22T22:06:19.009Z,4.50
2019-03-22T22:09:22.694Z,4.40
2019-03-22T22:12:26.493Z,4.30
2019-03-22T22:15:51.252Z,4.20
2019-03-22T22:18:54.820Z,4.20
2019-03-22T22:21:58.564Z,4.00
2019-03-22T22:25:02.220Z,4.00
2019-03-22T22:28:06.196Z,3.90
2019-03-22T22:31:09.972Z,3.90
2019-03-22T22:34:13.671Z,3.80
2019-03-22T22:37:17.384Z,3.80
2019-03-22T22:40:21.082Z,3.80
2019-03-22T22:43:24.784Z,3.70
2019-03-22T22:46:28.734Z,3.60
2019-03-22T22:49:32.392Z,3.50
2019-03-22T22:52:36.155Z,3.50
2019-03-22T22:55:39.973Z,3.50
2019-03-22T22:58:43.632Z,3.40
2019-03-22T23:01:47.483Z,3.30
2019-03-22T23:04:51.251Z,3.30
2019-03-22T23:07:54.996Z,3.20
2019-03-22T23:10:58.660Z,3.20
2019-03-22T23:14:02.369Z,3.20
2019-03-22T23:17:07.132Z,3.10
2019-03-22T23:20:11.009Z,3.00
2019-03-22T23:23:14.621Z,3.00
2019-03-22T23:26:18.426Z,3.00
2019-03-22T23:29:22.264Z,3.00
2019-03-22T23:32:26.192Z,3.00
2019-03-22T23:35:30.008Z,3.00
2019-03-22T23:38:33.869Z,3.00
2019-03-22T23:41:37.777Z,3.00
2019-03-22T23:44:41.844Z,2.90
2019-03-22T23:47:45.588Z,2.90
2019-03-22T23:50:49.364Z,2.90
2019-03-22T23:53:53.028Z,2.90
2019-03-22T23:56:56.823Z,3.00
